sensor_id;sensor_type;location;lat;lon;timestamp;pressure;altitude;pressure_sealevel;temperature;humidity
81961;BME280;71462;50.650;6.888;2023-09-12T00:01:56;99409.78;;;22.80;49.72
81961;BME280;71462;50.650;6.888;2023-09-12T00:03:59;99404.78;;;22.86;49.13
81961;BME280;71462;50.650;6.888;2023-09-12T00:06:02;99413.22;;;22.74;49.58
81961;BME280;71462;50.650;6.888;2023-09-12T00:08:05;99404.72;;;22.79;49.19
81961;BME280;71462;50.650;6.888;2023-09-12T00:10:08;99401.56;;;22.77;49.35
81961;BME280;71462;50.650;6.888;2023-09-12T00:12:14;99395.34;;;22.76;49.32
81961;BME280;71462;50.650;6.888;2023-09-12T00:14:17;99399.84;;;22.31;50.39
81961;BME280;71462;50.650;6.888;2023-09-12T00:16:21;99401.34;;;22.25;50.59
81961;BME280;71462;50.650;6.888;2023-09-12T00:18:24;99395.56;;;22.30;50.13
81961;BME280;71462;50.650;6.888;2023-09-12T00:20:27;99402.38;;;22.44;49.88
81961;BME280;71462;50.650;6.888;2023-09-12T00:22:29;99398.09;;;22.43;49.44
81961;BME280;71462;50.650;6.888;2023-09-12T00:24:31;99400.59;;;22.28;50.16
81961;BME280;71462;50.650;6.888;2023-09-12T00:26:33;99399.69;;;22.17;50.23
81961;BME280;71462;50.650;6.888;2023-09-12T00:28:36;99390.69;;;22.13;49.89
81961;BME280;71462;50.650;6.888;2023-09-12T00:30:40;99391.47;;;22.14;49.62
81961;BME280;71462;50.650;6.888;2023-09-12T00:32:45;99389.94;;;22.16;49.43
81961;BME280;71462;50.650;6.888;2023-09-12T00:34:48;99386.34;;;22.09;49.58
81961;BME280;71462;50.650;6.888;2023-09-12T00:36:50;99386.75;;;22.11;49.51
81961;BME280;71462;50.650;6.888;2023-09-12T00:38:53;99384.53;;;22.20;49.38
81961;BME280;71462;50.650;6.888;2023-09-12T00:40:54;99379.72;;;22.06;49.66
81961;BME280;71462;50.650;6.888;2023-09-12T00:42:58;99379.34;;;22.08;49.53
81961;BME280;71462;50.650;6.888;2023-09-12T00:45:01;99374.03;;;22.18;49.64
81961;BME280;71462;50.650;6.888;2023-09-12T00:47:04;99375.59;;;22.19;49.44
81961;BME280;71462;50.650;6.888;2023-09-12T00:49:09;99380.66;;;22.21;48.79
81961;BME280;71462;50.650;6.888;2023-09-12T00:51:13;99377.13;;;22.17;48.87
81961;BME280;71462;50.650;6.888;2023-09-12T00:53:17;99373.72;;;22.27;48.74
81961;BME280;71462;50.650;6.888;2023-09-12T00:55:21;99374.88;;;22.26;48.57
81961;BME280;71462;50.650;6.888;2023-09-12T00:57:24;99372.88;;;22.19;48.71
81961;BME280;71462;50.650;6.888;2023-09-12T00:59:27;99366.63;;;22.19;48.95
81961;BME280;71462;50.650;6.888;2023-09-12T01:01:31;99363.09;;;22.15;49.15
81961;BME280;71462;50.650;6.888;2023-09-12T01:03:35;99359.88;;;22.05;49.87
81961;BME280;71462;50.650;6.888;2023-09-12T01:05:41;99363.84;;;22.12;49.42
81961;BME280;71462;50.650;6.888;2023-09-12T01:07:44;99358.72;;;22.07;49.70
81961;BME280;71462;50.650;6.888;2023-09-12T01:09:46;99363.00;;;22.08;49.50
81961;BME280;71462;50.650;6.888;2023-09-12T01:11:49;99365.69;;;22.04;50.01
81961;BME280;71462;50.650;6.888;2023-09-12T01:13:52;99371.06;;;22.00;50.05
81961;BME280;71462;50.650;6.888;2023-09-12T01:15:54;99358.72;;;22.07;49.88
81961;BME280;71462;50.650;6.888;2023-09-12T01:17:57;99357.78;;;21.95;50.31
81961;BME280;71462;50.650;6.888;2023-09-12T01:20:00;99369.44;;;21.96;49.65
81961;BME280;71462;50.650;6.888;2023-09-12T01:22:20;99361.59;;;21.91;50.11
81961;BME280;71462;50.650;6.888;2023-09-12T01:24:52;99366.34;;;21.97;49.80
81961;BME280;71462;50.650;6.888;2023-09-12T01:27:21;99369.50;;;21.99;49.82
81961;BME280;71462;50.650;6.888;2023-09-12T01:29:24;99369.06;;;21.97;50.01
81961;BME280;71462;50.650;6.888;2023-09-12T01:31:28;99366.22;;;21.87;50.14
81961;BME280;71462;50.650;6.888;2023-09-12T01:33:32;99366.22;;;21.87;49.83
81961;BME280;71462;50.650;6.888;2023-09-12T01:35:34;99359.56;;;21.84;50.00
81961;BME280;71462;50.650;6.888;2023-09-12T01:37:37;99359.22;;;21.86;49.88
81961;BME280;71462;50.650;6.888;2023-09-12T01:39:39;99349.84;;;21.83;50.00
81961;BME280;71462;50.650;6.888;2023-09-12T01:41:43;99363.53;;;21.64;50.31
81961;BME280;71462;50.650;6.888;2023-09-12T01:43:50;99354.47;;;21.56;50.51
81961;BME280;71462;50.650;6.888;2023-09-12T01:45:55;99354.38;;;21.49;50.72
81961;BME280;71462;50.650;6.888;2023-09-12T01:48:00;99361.50;;;21.57;50.03
81961;BME280;71462;50.650;6.888;2023-09-12T01:50:04;99370.50;;;21.61;50.29
81961;BME280;71462;50.650;6.888;2023-09-12T01:52:08;99364.59;;;21.56;50.18
81961;BME280;71462;50.650;6.888;2023-09-12T01:54:11;99359.78;;;21.46;50.88
81961;BME280;71462;50.650;6.888;2023-09-12T01:56:15;99365.69;;;21.51;50.24
81961;BME280;71462;50.650;6.888;2023-09-12T01:58:17;99362.69;;;21.60;49.98
81961;BME280;71462;50.650;6.888;2023-09-12T02:00:21;99363.69;;;21.48;50.56
81961;BME280;71462;50.650;6.888;2023-09-12T02:02:24;99356.28;;;21.45;51.09
81961;BME280;71462;50.650;6.888;2023-09-12T02:04:26;99367.16;;;21.45;50.79
81961;BME280;71462;50.650;6.888;2023-09-12T02:06:28;99367.50;;;21.43;50.66
81961;BME280;71462;50.650;6.888;2023-09-12T02:08:30;99370.59;;;21.42;50.66
81961;BME280;71462;50.650;6.888;2023-09-12T02:10:33;99363.88;;;21.36;51.19
81961;BME280;71462;50.650;6.888;2023-09-12T02:12:36;99362.25;;;21.31;51.17
81961;BME280;71462;50.650;6.888;2023-09-12T02:14:38;99371.19;;;21.32;51.26
81961;BME280;71462;50.650;6.888;2023-09-12T02:16:42;99369.16;;;21.25;50.87
81961;BME280;71462;50.650;6.888;2023-09-12T02:18:45;99362.88;;;21.21;51.52
81961;BME280;71462;50.650;6.888;2023-09-12T02:20:47;99351.91;;;21.14;51.84
81961;BME280;71462;50.650;6.888;2023-09-12T02:22:50;99360.72;;;21.07;51.77
81961;BME280;71462;50.650;6.888;2023-09-12T02:24:53;99362.78;;;21.14;51.75
81961;BME280;71462;50.650;6.888;2023-09-12T02:26:55;99373.69;;;21.18;51.51
81961;BME280;71462;50.650;6.888;2023-09-12T02:28:59;99375.22;;;21.15;51.14
81961;BME280;71462;50.650;6.888;2023-09-12T02:31:02;99361.31;;;21.20;51.14
81961;BME280;71462;50.650;6.888;2023-09-12T02:33:06;99359.56;;;21.08;51.75
81961;BME280;71462;50.650;6.888;2023-09-12T02:35:09;99355.19;;;21.04;51.96
81961;BME280;71462;50.650;6.888;2023-09-12T02:37:11;99360.22;;;21.02;51.88
81961;BME280;71462;50.650;6.888;2023-09-12T02:39:13;99363.75;;;20.83;52.43
81961;BME280;71462;50.650;6.888;2023-09-12T02:41:16;99360.56;;;20.77;52.39
81961;BME280;71462;50.650;6.888;2023-09-12T02:43:19;99360.38;;;20.90;52.12
81961;BME280;71462;50.650;6.888;2023-09-12T02:45:21;99363.50;;;20.92;51.78
81961;BME280;71462;50.650;6.888;2023-09-12T02:47:24;99366.28;;;20.95;51.94
81961;BME280;71462;50.650;6.888;2023-09-12T02:49:28;99369.09;;;20.99;51.49
81961;BME280;71462;50.650;6.888;2023-09-12T02:51:31;99359.00;;;20.99;51.69
81961;BME280;71462;50.650;6.888;2023-09-12T02:53:33;99365.75;;;20.86;51.75
81961;BME280;71462;50.650;6.888;2023-09-12T02:55:39;99357.59;;;20.86;52.13
81961;BME280;71462;50.650;6.888;2023-09-12T02:57:42;99355.97;;;20.81;51.87
81961;BME280;71462;50.650;6.888;2023-09-12T02:59:45;99354.41;;;20.80;52.46
81961;BME280;71462;50.650;6.888;2023-09-12T03:01:47;99347.81;;;20.81;52.27
81961;BME280;71462;50.650;6.888;2023-09-12T03:03:50;99352.94;;;20.87;51.90
81961;BME280;71462;50.650;6.888;2023-09-12T03:05:58;99352.94;;;20.87;51.88
81961;BME280;71462;50.650;6.888;2023-09-12T03:08:01;99356.41;;;20.83;52.08
81961;BME280;71462;50.650;6.888;2023-09-12T03:10:05;99351.38;;;20.86;51.73
81961;BME280;71462;50.650;6.888;2023-09-12T03:12:08;99353.38;;;20.89;51.42
81961;BME280;71462;50.650;6.888;2023-09-12T03:14:10;99350.59;;;20.85;52.20
81961;BME280;71462;50.650;6.888;2023-09-12T03:16:12;99351.75;;;20.84;51.63
81961;BME280;71462;50.650;6.888;2023-09-12T03:18:15;99355.25;;;20.85;51.99
81961;BME280;71462;50.650;6.888;2023-09-12T03:20:18;99353.25;;;20.81;52.00
81961;BME280;71462;50.650;6.888;2023-09-12T03:22:22;99348.13;;;20.76;52.03
81961;BME280;71462;50.650;6.888;2023-09-12T03:24:23;99352.72;;;20.72;51.62
81961;BME280;71462;50.650;6.888;2023-09-12T03:26:26;99347.28;;;20.72;51.70
81961;BME280;71462;50.650;6.888;2023-09-12T03:28:29;99348.50;;;20.75;51.55
81961;BME280;71462;50.650;6.888;2023-09-12T03:30:32;99350.00;;;20.72;51.94
81961;BME280;71462;50.650;6.888;2023-09-12T03:32:35;99351.47;;;20.70;51.61
81961;BME280;71462;50.650;6.888;2023-09-12T03:34:37;99346.13;;;20.73;51.47
81961;BME280;71462;50.650;6.888;2023-09-12T03:36:39;99351.84;;;20.68;51.99
81961;BME280;71462;50.650;6.888;2023-09-12T03:38:43;99347.56;;;20.67;51.85
81961;BME280;71462;50.650;6.888;2023-09-12T03:40:45;99347.06;;;20.62;52.14
81961;BME280;71462;50.650;6.888;2023-09-12T03:42:48;99341.22;;;20.60;52.07
81961;BME280;71462;50.650;6.888;2023-09-12T03:44:51;99343.94;;;20.60;51.88
81961;BME280;71462;50.650;6.888;2023-09-12T03:46:53;99351.59;;;20.54;52.59
81961;BME280;71462;50.650;6.888;2023-09-12T03:48:56;99355.44;;;20.53;52.27
81961;BME280;71462;50.650;6.888;2023-09-12T03:50:58;99350.31;;;20.48;52.58
81961;BME280;71462;50.650;6.888;2023-09-12T03:53:00;99347.59;;;20.48;52.49
81961;BME280;71462;50.650;6.888;2023-09-12T03:55:04;99353.81;;;20.48;52.52
81961;BME280;71462;50.650;6.888;2023-09-12T03:57:07;99345.66;;;20.48;52.48
81961;BME280;71462;50.650;6.888;2023-09-12T03:59:10;99349.88;;;20.46;52.92
81961;BME280;71462;50.650;6.888;2023-09-12T04:01:14;99337.81;;;20.43;52.59
81961;BME280;71462;50.650;6.888;2023-09-12T04:03:16;99332.03;;;20.45;52.68
81961;BME280;71462;50.650;6.888;2023-09-12T04:05:19;99321.94;;;20.45;52.97
81961;BME280;71462;50.650;6.888;2023-09-12T04:07:21;99319.59;;;20.44;53.07
81961;BME280;71462;50.650;6.888;2023-09-12T04:09:24;99317.31;;;20.46;53.04
81961;BME280;71462;50.650;6.888;2023-09-12T04:11:28;99314.22;;;20.47;53.00
81961;BME280;71462;50.650;6.888;2023-09-12T04:13:46;99311.56;;;20.51;53.12
81961;BME280;71462;50.650;6.888;2023-09-12T04:15:48;99303.50;;;20.55;52.85
81961;BME280;71462;50.650;6.888;2023-09-12T04:17:51;99292.31;;;20.60;52.67
81961;BME280;71462;50.650;6.888;2023-09-12T04:19:54;99300.16;;;20.65;52.61
81961;BME280;71462;50.650;6.888;2023-09-12T04:21:57;99295.94;;;20.67;52.75
81961;BME280;71462;50.650;6.888;2023-09-12T04:23:59;99301.97;;;20.57;53.28
81961;BME280;71462;50.650;6.888;2023-09-12T04:26:01;99291.78;;;20.50;53.43
81961;BME280;71462;50.650;6.888;2023-09-12T04:28:06;99289.72;;;20.67;52.44
81961;BME280;71462;50.650;6.888;2023-09-12T04:30:09;99291.66;;;20.66;53.59
81961;BME280;71462;50.650;6.888;2023-09-12T04:32:11;99298.41;;;20.53;54.10
81961;BME280;71462;50.650;6.888;2023-09-12T04:34:13;99310.31;;;20.45;54.59
81961;BME280;71462;50.650;6.888;2023-09-12T04:36:16;99304.72;;;20.38;54.28
81961;BME280;71462;50.650;6.888;2023-09-12T04:38:18;99296.25;;;20.39;54.39
81961;BME280;71462;50.650;6.888;2023-09-12T04:40:22;99293.94;;;20.41;54.52
81961;BME280;71462;50.650;6.888;2023-09-12T04:42:24;99295.59;;;20.46;54.30
81961;BME280;71462;50.650;6.888;2023-09-12T04:44:27;99294.78;;;20.45;54.30
81961;BME280;71462;50.650;6.888;2023-09-12T04:46:30;99292.72;;;20.39;54.78
81961;BME280;71462;50.650;6.888;2023-09-12T04:48:32;99286.94;;;20.40;54.76
81961;BME280;71462;50.650;6.888;2023-09-12T04:50:40;99282.78;;;20.46;53.81
81961;BME280;71462;50.650;6.888;2023-09-12T04:52:42;99286.28;;;20.47;54.12
81961;BME280;71462;50.650;6.888;2023-09-12T04:54:45;99294.13;;;20.52;54.47
81961;BME280;71462;50.650;6.888;2023-09-12T04:56:51;99296.25;;;20.39;55.07
81961;BME280;71462;50.650;6.888;2023-09-12T04:58:56;99291.88;;;20.35;54.94
81961;BME280;71462;50.650;6.888;2023-09-12T05:01:00;99288.72;;;20.33;55.00
81961;BME280;71462;50.650;6.888;2023-09-12T05:03:04;99294.31;;;20.40;54.62
81961;BME280;71462;50.650;6.888;2023-09-12T05:05:07;99303.44;;;20.51;54.38
81961;BME280;71462;50.650;6.888;2023-09-12T05:07:10;99303.53;;;20.58;53.76
81961;BME280;71462;50.650;6.888;2023-09-12T05:09:12;99298.91;;;20.59;54.09
81961;BME280;71462;50.650;6.888;2023-09-12T05:11:16;99300.00;;;20.54;54.24
81961;BME280;71462;50.650;6.888;2023-09-12T05:13:19;99309.22;;;20.49;54.48
81961;BME280;71462;50.650;6.888;2023-09-12T05:15:21;99311.28;;;20.56;54.44
81961;BME280;71462;50.650;6.888;2023-09-12T05:17:25;99315.97;;;20.59;54.24
81961;BME280;71462;50.650;6.888;2023-09-12T05:19:29;99322.78;;;20.49;55.12
81961;BME280;71462;50.650;6.888;2023-09-12T05:21:32;99325.09;;;20.47;54.27
81961;BME280;71462;50.650;6.888;2023-09-12T05:23:35;99339.59;;;20.36;54.85
81961;BME280;71462;50.650;6.888;2023-09-12T05:25:37;99346.53;;;20.33;55.46
81961;BME280;71462;50.650;6.888;2023-09-12T05:27:40;99352.16;;;20.25;55.38
81961;BME280;71462;50.650;6.888;2023-09-12T05:29:42;99355.03;;;20.32;55.15
81961;BME280;71462;50.650;6.888;2023-09-12T05:31:45;99350.75;;;20.31;55.13
81961;BME280;71462;50.650;6.888;2023-09-12T05:33:49;99347.72;;;20.36;55.13
81961;BME280;71462;50.650;6.888;2023-09-12T05:35:51;99349.03;;;20.42;55.13
81961;BME280;71462;50.650;6.888;2023-09-12T05:37:54;99362.09;;;20.36;55.15
81961;BME280;71462;50.650;6.888;2023-09-12T05:39:56;99353.75;;;20.45;55.16
81961;BME280;71462;50.650;6.888;2023-09-12T05:41:59;99356.94;;;20.50;54.77
81961;BME280;71462;50.650;6.888;2023-09-12T05:44:02;99358.66;;;20.59;54.87
81961;BME280;71462;50.650;6.888;2023-09-12T05:46:05;99350.63;;;20.66;54.47
81961;BME280;71462;50.650;6.888;2023-09-12T05:48:07;99349.53;;;20.70;54.14
81961;BME280;71462;50.650;6.888;2023-09-12T05:50:12;99354.50;;;20.65;54.89
81961;BME280;71462;50.650;6.888;2023-09-12T05:52:14;99352.38;;;20.55;55.01
81961;BME280;71462;50.650;6.888;2023-09-12T05:54:17;99349.28;;;20.56;55.05
81961;BME280;71462;50.650;6.888;2023-09-12T05:56:20;99352.25;;;20.70;54.17
81961;BME280;71462;50.650;6.888;2023-09-12T05:58:23;99344.56;;;20.72;54.31
81961;BME280;71462;50.650;6.888;2023-09-12T06:00:25;99342.63;;;20.73;54.81
81961;BME280;71462;50.650;6.888;2023-09-12T06:02:28;99351.97;;;20.75;54.43
81961;BME280;71462;50.650;6.888;2023-09-12T06:04:31;99353.19;;;20.78;54.02
81961;BME280;71462;50.650;6.888;2023-09-12T06:06:34;99352.72;;;20.72;54.85
81961;BME280;71462;50.650;6.888;2023-09-12T06:08:37;99361.28;;;20.74;54.38
81961;BME280;71462;50.650;6.888;2023-09-12T06:10:40;99368.78;;;20.81;54.05
81961;BME280;71462;50.650;6.888;2023-09-12T06:12:42;99372.69;;;20.83;54.05
81961;BME280;71462;50.650;6.888;2023-09-12T06:14:45;99372.03;;;20.90;54.14
81961;BME280;71462;50.650;6.888;2023-09-12T06:16:48;99371.38;;;20.97;53.71
81961;BME280;71462;50.650;6.888;2023-09-12T06:18:51;99376.53;;;21.02;53.53
81961;BME280;71462;50.650;6.888;2023-09-12T06:20:55;99378.97;;;21.07;54.05
81961;BME280;71462;50.650;6.888;2023-09-12T06:22:58;99378.41;;;21.21;53.48
81961;BME280;71462;50.650;6.888;2023-09-12T06:25:01;99383.00;;;21.39;53.05
81961;BME280;71462;50.650;6.888;2023-09-12T06:27:04;99377.41;;;21.55;52.20
81961;BME280;71462;50.650;6.888;2023-09-12T06:29:07;99372.69;;;21.52;52.62
81961;BME280;71462;50.650;6.888;2023-09-12T06:31:09;99375.16;;;21.61;52.73
81961;BME280;71462;50.650;6.888;2023-09-12T06:33:12;99372.91;;;21.66;52.56
81961;BME280;71462;50.650;6.888;2023-09-12T06:35:15;99368.81;;;21.76;52.62
81961;BME280;71462;50.650;6.888;2023-09-12T06:37:17;99368.19;;;21.90;51.64
81961;BME280;71462;50.650;6.888;2023-09-12T06:39:21;99367.31;;;21.82;51.82
81961;BME280;71462;50.650;6.888;2023-09-12T06:41:23;99370.84;;;21.83;51.56
81961;BME280;71462;50.650;6.888;2023-09-12T06:43:26;99372.56;;;21.68;52.35
81961;BME280;71462;50.650;6.888;2023-09-12T06:45:28;99378.16;;;21.29;52.99
81961;BME280;71462;50.650;6.888;2023-09-12T06:47:34;99374.22;;;21.50;53.08
81961;BME280;71462;50.650;6.888;2023-09-12T06:49:36;99371.84;;;21.48;53.25
81961;BME280;71462;50.650;6.888;2023-09-12T06:51:39;99369.13;;;21.71;52.43
81961;BME280;71462;50.650;6.888;2023-09-12T06:53:42;99366.16;;;21.83;52.34
81961;BME280;71462;50.650;6.888;2023-09-12T06:55:46;99372.22;;;21.99;52.07
81961;BME280;71462;50.650;6.888;2023-09-12T06:57:49;99373.53;;;22.09;51.77
81961;BME280;71462;50.650;6.888;2023-09-12T06:59:51;99367.19;;;22.01;51.63
81961;BME280;71462;50.650;6.888;2023-09-12T07:01:54;99369.72;;;22.17;51.32
81961;BME280;71462;50.650;6.888;2023-09-12T07:03:57;99363.28;;;22.32;51.21
81961;BME280;71462;50.650;6.888;2023-09-12T07:06:00;99372.25;;;22.33;51.29
81961;BME280;71462;50.650;6.888;2023-09-12T07:08:02;99367.31;;;22.39;51.04
81961;BME280;71462;50.650;6.888;2023-09-12T07:10:05;99367.31;;;22.39;51.06
81961;BME280;71462;50.650;6.888;2023-09-12T07:12:26;99360.91;;;22.27;51.46
81961;BME280;71462;50.650;6.888;2023-09-12T07:14:30;99361.22;;;22.22;51.54
81961;BME280;71462;50.650;6.888;2023-09-12T07:16:32;99364.53;;;22.35;51.29
81961;BME280;71462;50.650;6.888;2023-09-12T07:18:38;99367.19;;;22.01;52.41
81961;BME280;71462;50.650;6.888;2023-09-12T07:20:42;99365.44;;;22.16;51.77
81961;BME280;71462;50.650;6.888;2023-09-12T07:22:44;99367.84;;;22.21;51.78
81961;BME280;71462;50.650;6.888;2023-09-12T07:24:47;99371.22;;;22.11;52.77
81961;BME280;71462;50.650;6.888;2023-09-12T07:26:49;99369.69;;;22.14;52.59
81961;BME280;71462;50.650;6.888;2023-09-12T07:28:53;99379.28;;;22.34;51.82
81961;BME280;71462;50.650;6.888;2023-09-12T07:30:56;99371.38;;;22.25;52.14
81961;BME280;71462;50.650;6.888;2023-09-12T07:32:58;99377.38;;;22.34;51.60
81961;BME280;71462;50.650;6.888;2023-09-12T07:35:01;99377.16;;;22.20;51.86
81961;BME280;71462;50.650;6.888;2023-09-12T07:37:03;99375.09;;;22.10;52.22
81961;BME280;71462;50.650;6.888;2023-09-12T07:39:06;99372.13;;;22.22;52.48
81961;BME280;71462;50.650;6.888;2023-09-12T07:41:09;99381.78;;;22.46;51.71
81961;BME280;71462;50.650;6.888;2023-09-12T07:43:11;99374.19;;;22.66;51.54
81961;BME280;71462;50.650;6.888;2023-09-12T07:45:15;99377.22;;;22.57;51.28
81961;BME280;71462;50.650;6.888;2023-09-12T07:47:18;99372.94;;;22.56;51.82
81961;BME280;71462;50.650;6.888;2023-09-12T07:49:21;99373.34;;;22.58;51.39
81961;BME280;71462;50.650;6.888;2023-09-12T07:51:25;99380.09;;;22.68;51.14
81961;BME280;71462;50.650;6.888;2023-09-12T07:53:28;99369.31;;;22.82;50.93
81961;BME280;71462;50.650;6.888;2023-09-12T07:55:31;99370.41;;;22.74;50.67
81961;BME280;71462;50.650;6.888;2023-09-12T07:57:37;99371.72;;;22.91;50.42
81961;BME280;71462;50.650;6.888;2023-09-12T07:59:40;99377.16;;;22.87;50.96
81961;BME280;71462;50.650;6.888;2023-09-12T08:01:43;99373.06;;;22.67;51.28
81961;BME280;71462;50.650;6.888;2023-09-12T08:03:46;99373.66;;;22.90;50.21
81961;BME280;71462;50.650;6.888;2023-09-12T08:05:54;99380.47;;;23.04;50.42
81961;BME280;71462;50.650;6.888;2023-09-12T08:07:57;99382.50;;;23.17;49.85
81961;BME280;71462;50.650;6.888;2023-09-12T08:10:00;99379.09;;;23.27;49.65
81961;BME280;71462;50.650;6.888;2023-09-12T08:12:03;99376.06;;;23.40;49.42
81961;BME280;71462;50.650;6.888;2023-09-12T08:14:05;99372.59;;;23.43;48.97
81961;BME280;71462;50.650;6.888;2023-09-12T08:16:08;99370.72;;;23.57;48.66
81961;BME280;71462;50.650;6.888;2023-09-12T08:18:12;99375.41;;;23.57;48.64
81961;BME280;71462;50.650;6.888;2023-09-12T08:20:14;99368.13;;;23.68;48.17
81961;BME280;71462;50.650;6.888;2023-09-12T08:22:17;99378.34;;;23.85;47.85
81961;BME280;71462;50.650;6.888;2023-09-12T08:24:20;99374.53;;;24.01;48.16
81961;BME280;71462;50.650;6.888;2023-09-12T08:26:22;99372.59;;;24.05;47.62
81961;BME280;71462;50.650;6.888;2023-09-12T08:28:25;99377.13;;;23.76;48.82
81961;BME280;71462;50.650;6.888;2023-09-12T08:30:27;99380.41;;;23.48;48.99
81961;BME280;71462;50.650;6.888;2023-09-12T08:32:31;99374.28;;;23.62;48.95
81961;BME280;71462;50.650;6.888;2023-09-12T08:34:35;99377.50;;;23.74;48.91
81961;BME280;71462;50.650;6.888;2023-09-12T08:36:36;99382.28;;;23.92;48.24
81961;BME280;71462;50.650;6.888;2023-09-12T08:38:39;99380.06;;;24.15;47.60
81961;BME280;71462;50.650;6.888;2023-09-12T08:40:47;99379.03;;;24.41;47.15
81961;BME280;71462;50.650;6.888;2023-09-12T08:42:51;99382.56;;;24.56;46.31
81961;BME280;71462;50.650;6.888;2023-09-12T08:44:54;99391.94;;;24.58;46.45
81961;BME280;71462;50.650;6.888;2023-09-12T08:46:56;99393.75;;;24.22;47.21
81961;BME280;71462;50.650;6.888;2023-09-12T08:49:00;99398.81;;;24.24;47.42
81961;BME280;71462;50.650;6.888;2023-09-12T08:51:06;99397.88;;;24.78;46.32
81961;BME280;71462;50.650;6.888;2023-09-12T08:53:10;99400.69;;;25.13;44.86
81961;BME280;71462;50.650;6.888;2023-09-12T08:55:13;99397.16;;;25.02;45.13
81961;BME280;71462;50.650;6.888;2023-09-12T08:57:16;99403.81;;;25.16;44.85
81961;BME280;71462;50.650;6.888;2023-09-12T08:59:19;99410.47;;;25.36;44.23
81961;BME280;71462;50.650;6.888;2023-09-12T09:01:23;99412.00;;;25.26;44.61
81961;BME280;71462;50.650;6.888;2023-09-12T09:03:28;99419.81;;;25.21;45.12
81961;BME280;71462;50.650;6.888;2023-09-12T09:05:33;99419.66;;;24.57;46.42
81961;BME280;71462;50.650;6.888;2023-09-12T09:07:40;99417.63;;;24.32;46.68
81961;BME280;71462;50.650;6.888;2023-09-12T09:09:42;99423.53;;;24.41;47.42
81961;BME280;71462;50.650;6.888;2023-09-12T09:11:45;99415.34;;;24.48;46.96
81961;BME280;71462;50.650;6.888;2023-09-12T09:13:49;99407.28;;;24.91;45.97
81961;BME280;71462;50.650;6.888;2023-09-12T09:16:09;99400.69;;;25.35;45.72
81961;BME280;71462;50.650;6.888;2023-09-12T09:18:13;99409.69;;;25.32;44.92
81961;BME280;71462;50.650;6.888;2023-09-12T09:20:22;99406.94;;;25.10;45.64
81961;BME280;71462;50.650;6.888;2023-09-12T09:22:23;99410.41;;;24.86;45.79
81961;BME280;71462;50.650;6.888;2023-09-12T09:24:28;99414.66;;;24.76;45.88
81961;BME280;71462;50.650;6.888;2023-09-12T09:26:42;99415.44;;;24.73;46.48
81961;BME280;71462;50.650;6.888;2023-09-12T09:28:45;99416.91;;;24.53;46.78
81961;BME280;71462;50.650;6.888;2023-09-12T09:30:49;99409.19;;;24.80;46.53
81961;BME280;71462;50.650;6.888;2023-09-12T09:32:54;99422.75;;;24.41;46.94
81961;BME280;71462;50.650;6.888;2023-09-12T09:34:56;99416.50;;;24.47;47.40
81961;BME280;71462;50.650;6.888;2023-09-12T09:37:02;99420.13;;;24.73;46.48
81961;BME280;71462;50.650;6.888;2023-09-12T09:39:05;99420.13;;;24.76;46.25
81961;BME280;71462;50.650;6.888;2023-09-12T09:41:09;99417.00;;;24.78;45.82
81961;BME280;71462;50.650;6.888;2023-09-12T09:43:12;99419.81;;;25.06;45.30
81961;BME280;71462;50.650;6.888;2023-09-12T09:45:15;99420.22;;;25.16;45.80
81961;BME280;71462;50.650;6.888;2023-09-12T09:47:19;99423.75;;;25.30;45.60
81961;BME280;71462;50.650;6.888;2023-09-12T09:49:22;99418.66;;;25.43;45.00
81961;BME280;71462;50.650;6.888;2023-09-12T09:51:25;99422.16;;;25.01;45.60
81961;BME280;71462;50.650;6.888;2023-09-12T09:53:28;99422.59;;;25.28;44.86
81961;BME280;71462;50.650;6.888;2023-09-12T09:55:31;99416.72;;;25.36;44.90
81961;BME280;71462;50.650;6.888;2023-09-12T09:57:37;99419.06;;;25.66;44.24
81961;BME280;71462;50.650;6.888;2023-09-12T09:59:40;99415.53;;;25.73;44.29
81961;BME280;71462;50.650;6.888;2023-09-12T10:01:45;99424.50;;;25.84;43.73
81961;BME280;71462;50.650;6.888;2023-09-12T10:03:47;99428.06;;;25.78;44.03
81961;BME280;71462;50.650;6.888;2023-09-12T10:05:50;99420.97;;;25.87;43.67
81961;BME280;71462;50.650;6.888;2023-09-12T10:07:57;99422.19;;;25.58;44.57
81961;BME280;71462;50.650;6.888;2023-09-12T10:10:02;99415.94;;;25.43;43.96
81961;BME280;71462;50.650;6.888;2023-09-12T10:12:05;99414.00;;;25.61;43.93
81961;BME280;71462;50.650;6.888;2023-09-12T10:14:11;99410.06;;;25.80;43.86
81961;BME280;71462;50.650;6.888;2023-09-12T10:16:15;99409.63;;;26.07;43.08
81961;BME280;71462;50.650;6.888;2023-09-12T10:18:19;99416.22;;;26.23;42.69
81961;BME280;71462;50.650;6.888;2023-09-12T10:20:34;99415.50;;;26.09;42.92
81961;BME280;71462;50.650;6.888;2023-09-12T10:22:40;99420.97;;;25.91;43.27
81961;BME280;71462;50.650;6.888;2023-09-12T10:24:46;99415.88;;;26.07;42.67
81961;BME280;71462;50.650;6.888;2023-09-12T10:26:52;99413.88;;;26.18;41.89
81961;BME280;71462;50.650;6.888;2023-09-12T10:28:55;99413.78;;;26.47;42.62
81961;BME280;71462;50.650;6.888;2023-09-12T10:30:59;99420.44;;;26.46;41.54
81961;BME280;71462;50.650;6.888;2023-09-12T10:33:03;99422.28;;;26.74;41.68
81961;BME280;71462;50.650;6.888;2023-09-12T10:35:08;99419.56;;;26.70;41.75
81961;BME280;71462;50.650;6.888;2023-09-12T10:37:12;99426.94;;;26.80;40.48
81961;BME280;71462;50.650;6.888;2023-09-12T10:39:19;99417.25;;;26.65;41.24
81961;BME280;71462;50.650;6.888;2023-09-12T10:41:25;99416.00;;;26.77;41.02
81961;BME280;71462;50.650;6.888;2023-09-12T10:43:29;99416.22;;;27.04;40.27
81961;BME280;71462;50.650;6.888;2023-09-12T10:45:35;99400.13;;;27.06;40.44
81961;BME280;71462;50.650;6.888;2023-09-12T10:47:39;99410.47;;;26.84;41.38
81961;BME280;71462;50.650;6.888;2023-09-12T10:49:43;99407.47;;;26.64;41.66
81961;BME280;71462;50.650;6.888;2023-09-12T10:51:47;99403.00;;;26.84;41.65
81961;BME280;71462;50.650;6.888;2023-09-12T10:53:50;99402.25;;;26.80;41.10
81961;BME280;71462;50.650;6.888;2023-09-12T10:55:58;99408.13;;;26.82;40.54